METAR Data
IDs: Format: Raw Decoded Include TAF

Data at: 1341 UTC 14 Dec 2019

PAGN 141256Z AUTO 00000KT 4SM BR OVC003 00/00 A3007 RMK AO2 SLP171 T00000000 FZRANO
PAGN 141229Z AUTO 14003KT 10SM BKN003 BKN012 00/00 A3007 RMK AO2 FZRANO
PAGN 141153Z AUTO 00000KT 10SM SCT003 BKN012 01/01 A3006 RMK AO2 FZRANO
PAGN 141056Z AUTO 00000KT 10SM SCT003 SCT024 02/01 A3006 RMK AO2 SLP167 T00170011 FZRANO
PAGN 141020Z AUTO VRB03KT 10SM SCT003 01/01 A3005 RMK AO2 FZRANO
PAGN 141008Z AUTO 13003KT 10SM BKN003 BKN030 01/01 A3006 RMK AO2 FZRANO
PAGN 140956Z AUTO 14003KT 10SM SCT003 BKN030 01/01 A3006 RMK AO2 SLP167 T00110011 FZRANO
PAGN 140953Z AUTO 13003KT 10SM SCT003 BKN030 01/01 A3005 RMK AO2 FZRANO
PAGN 140856Z AUTO 00000KT 10SM BKN003 02/01 A3004 RMK AO2 SLP163 T00170011 400440011 51007 FZRANO
PAGN 140756Z AUTO 00000KT 10SM BKN003 BKN026 02/01 A3003 RMK AO2 SLP159 T00170011 FZRANO
PAGN 140754Z AUTO 00000KT 10SM BKN003 BKN026 02/01 A3003 RMK AO2 FZRANO
PAGN 140745Z AUTO 00000KT 10SM SCT003 BKN028 02/02 A3003 RMK AO2 FZRANO
PAGN 140656Z AUTO 00000KT 10SM FEW003 BKN032 02/02 A3002 RMK AO2 SLP156 T00220017 FZRANO
PAGN 140640Z AUTO 00000KT 10SM FEW003 BKN032 BKN038 02/02 A3002 RMK AO2 FZRANO
PAGN 140556Z AUTO 00000KT 10SM OVC030 02/02 A3001 RMK AO2 SLP153 60001 T00220022 10044 20022 53006 FZRANO
PAGN 140456Z AUTO 00000KT 10SM SCT025 BKN032 BKN055 03/03 A3000 RMK AO2 SLP148 T00330028
PAGN 140452Z AUTO 00000KT 10SM SCT025 BKN032 BKN055 03/03 A3000 RMK AO2
PAGN 140356Z AUTO 00000KT 10SM OVC023 03/03 A2999 RMK AO2 SLP146 T00330033
PAGN 140256Z AUTO 00000KT 10SM OVC025 03/03 A2998 RMK AO2 RAE0159 SLP142 P0000 60001 T00330033 51008
PAGN 132256Z AUTO 07003KT 10SM OVC034 04/03 A2995 RMK AO2 RAE14 SLP132 P0000 T00440033
PAGN 132056Z AUTO 08004KT 10SM OVC034 04/03 A2994 RMK AO2 RAE42 SLP129 P0004 60008 T00440033 50008
PAGN 132039Z AUTO 06004KT 10SM -RA SCT024 OVC034 04/03 A2995 RMK AO2 P0004
PAGN 132013Z AUTO 00000KT 5SM RA BR BKN022 OVC033 04/03 A2995 RMK AO2 P0002
PAGN 131956Z AUTO 00000KT 10SM -RA SCT030 BKN035 OVC046 04/03 A2995 RMK AO2 SLP130 P0002 T00390033
PAGN 131920Z AUTO 00000KT 10SM -RA SCT024 BKN033 OVC046 04/03 A2994 RMK AO2 P0001
PAGN 131856Z AUTO 00000KT 10SM -RA BKN026 OVC036 04/03 A2994 RMK AO2 RAB15 SLP127 P0002 T00390028
PAGN 131828Z AUTO 07003KT 10SM -RA BKN026 BKN033 OVC041 04/03 A2993 RMK AO2 RAB15 P0001
PAGN 131756Z AUTO VRB03KT 10SM BKN043 03/02 A2992 RMK AO2 SLP122 60004 T00330022 10033 20028 53008
PAGN 131356Z AUTO 00000KT 10SM SCT039 BKN065 03/02 A2989 RMK AO2 RAB09E42 SLP111 P0001 T00280022
PAGN 131256Z AUTO 00000KT 10SM FEW003 SCT040 OVC065 03/03 A2988 RMK AO2 SLP106 P0001 T00280028
PAGN 131241Z AUTO 00000KT 10SM FEW003 SCT031 BKN065 03/02 A2987 RMK AO2 P0001
PAGN 131156Z AUTO 00000KT 10SM SCT031 BKN038 OVC060 03/03 A2986 RMK AO2 RAE21 SLP101 P0000 60002 70004 T00330033 10050 20033 51027
PAGN 130812Z AUTO 00000KT 10SM FEW029 BKN060 04/04 A2977 RMK AO2
PAGN 130756Z AUTO 00000KT 10SM FEW024 BKN029 04/04 A2976 RMK AO2 RAE32 SLP067 P0000 T00440039
PAGN 130656Z AUTO 00000KT 10SM -RA FEW016 OVC025 05/04 A2973 RMK AO2 RAB17 SLP057 P0001 T00500044
PAGN 130632Z AUTO 00000KT 10SM -RA OVC029 05/04 A2971 RMK AO2 RAB17 P0000
PAGN 130556Z AUTO 06005KT 10SM OVC031 05/04 A2969 RMK AO2 RAE41 SLP043 P0000 60001 T00500039 10050 20044 53027
PAGN 130527Z AUTO 04005KT 10SM -RA OVC031 05/04 A2967 RMK AO2 P0000
PAGN 130456Z AUTO 05006KT 10SM -RA BKN028 OVC034 05/04 A2966 RMK AO2 RAB36 SLP034 P0000 T00500039
PAGN 130356Z AUTO 05007KT 10SM BKN044 OVC060 04/03 A2963 RMK AO2 SLP024 T00440033
PAGN 130156Z AUTO 06007KT 10SM BKN034 OVC049 05/04 A2959 RMK AO2 RAE07 SLP008 P0000 T00500039